^^
Meteo Knjazevac Station Historical Data
Daily Summary for June 27, 2022 Units:  English    Metric   Both
Daily Weekly Monthly Yearly Custom
  High: Low: Average:
Temperature: 41.1 °F 30.6 °F 36 °F
Dew Point: 39.1 °F 30.3 °F 35.2 °F
Humidity: 99% 89% 97%
Wind Speed: 4.4mph 0mph 1.7mph
Wind Gust: 6mph - -
Wind- - WSW
Pressure: 30.32 in 30.21 in -
Precipitation: 0.11 in    
Historical Graphs
 
 
Tabular Data for June 27, 2022
Time Temperature Dew Point Pressure Wind Wind Speed Wind Gust Humidity Rainfall Rate (Hourly) solar Conditions
00:04 30.8 °F 30.6 °F 30.30 in North 0.9 mph 2 mph 99% 0.00 in 0 W/m2
00:09 30.7 °F 30.5 °F 30.30 in NNW 1.1 mph 2 mph 99% 0.00 in 0 W/m2
00:14 30.7 °F 30.5 °F 30.30 in NNW 1 mph 1 mph 99% 0.00 in 0 W/m2
00:19 30.7 °F 30.5 °F 30.30 in NW 1.4 mph 2 mph 99% 0.00 in 0 W/m2
00:24 30.7 °F 30.5 °F 30.30 in NNW 1.8 mph 2 mph 99% 0.00 in 0 W/m2
00:29 30.7 °F 30.4 °F 30.30 in NNW 0.8 mph 3 mph 99% 0.00 in 0 W/m2
00:34 30.7 °F 30.5 °F 30.30 in NNW 0.4 mph 2 mph 99% 0.00 in 0 W/m2
00:39 30.7 °F 30.5 °F 30.30 in NNW 1.1 mph 2 mph 99% 0.00 in 0 W/m2
00:44 30.7 °F 30.5 °F 30.30 in North 0.4 mph 2 mph 99% 0.00 in 0 W/m2
00:49 30.7 °F 30.5 °F 30.30 in North 0.4 mph 1 mph 99% 0.00 in 0 W/m2
00:54 30.7 °F 30.5 °F 30.30 in Calm   1 mph 99% 0.00 in 0 W/m2
00:59 30.7 °F 30.4 °F 30.30 in West 1.3 mph 1.1 mph 99% 0.00 in 0 W/m2
01:04 30.6 °F 30.3 °F 30.30 in WNW 0.8 mph 2 mph 99% 0.00 in 0 W/m2
01:09 30.6 °F 30.3 °F 30.30 in NNW 1.5 mph 2 mph 99% 0.00 in 0 W/m2
01:14 30.6 °F 30.3 °F 30.30 in North 0.9 mph 2 mph 99% 0.00 in 0 W/m2
01:19 30.6 °F 30.3 °F 30.30 in NNW 1.6 mph 1 mph 99% 0.00 in 0 W/m2
01:24 30.6 °F 30.3 °F 30.30 in NNW 2.5 mph 2 mph 99% 0.00 in 0 W/m2
01:29 30.6 °F 30.3 °F 30.30 in North 2 mph 3 mph 99% 0.00 in 0 W/m2
01:34 30.6 °F 30.4 °F 30.30 in NE 0.3 mph 3 mph 99% 0.00 in 0 W/m2
01:39 30.7 °F 30.5 °F 30.30 in SE 2.2 mph 1.6 mph 99% 0.00 in 0 W/m2
01:44 30.7 °F 30.5 °F 30.31 in SSE 0.5 mph 3 mph 99% 0.00 in 0 W/m2
01:49 30.7 °F 30.5 °F 30.31 in WNW 1.8 mph 1 mph 99% 0.00 in 0 W/m2
01:54 30.7 °F 30.5 °F 30.30 in NW 0.8 mph 2 mph 99% 0.00 in 0 W/m2
01:59 30.8 °F 30.6 °F 30.30 in NE 1.6 mph 1 mph 99% 0.00 in 0 W/m2
02:04 30.9 °F 30.7 °F 30.31 in NNE 0.8 mph 2 mph 99% 0.00 in 0 W/m2
02:09 31.1 °F 30.9 °F 30.31 in NNW 2.2 mph 2 mph 99% 0.00 in 0 W/m2
02:14 31.1 °F 30.9 °F 30.30 in NNW 1.5 mph 3 mph 99% 0.00 in 0 W/m2
02:19 31 °F 30.8 °F 30.30 in Calm   2 mph 99% 0.00 in 0 W/m2
02:24 31.1 °F 30.9 °F 30.30 in North 0.7 mph 0.4 mph 99% 0.00 in 0 W/m2
02:29 31.1 °F 30.9 °F 30.30 in NNW 0.3 mph 2 mph 99% 0.00 in 0 W/m2
02:34 31.1 °F 30.9 °F 30.30 in NW 1.1 mph 1.6 mph 99% 0.00 in 0 W/m2
02:39 31.1 °F 30.9 °F 30.30 in NNW 0.3 mph 2 mph 99% 0.00 in 0 W/m2
02:44 31.1 °F 30.9 °F 30.30 in NNW 0.8 mph 1 mph 99% 0.00 in 0 W/m2
02:49 31 °F 30.8 °F 30.30 in WNW 0.4 mph 2 mph 99% 0.00 in 0 W/m2
02:54 31.1 °F 30.9 °F 30.30 in WNW 2.1 mph 3 mph 99% 0.00 in 0 W/m2
02:59 31.1 °F 30.9 °F 30.31 in NW 1.3 mph 2 mph 99% 0.00 in 0 W/m2
03:04 31.1 °F 30.9 °F 30.30 in NNW 1.6 mph 2 mph 99% 0.00 in 0 W/m2
03:09 31.1 °F 30.9 °F 30.30 in NNW 1 mph 2 mph 99% 0.00 in 0 W/m2
03:14 31.3 °F 31 °F 30.30 in WNW 0.8 mph 2 mph 99% 0.00 in 0 W/m2
03:19 31.3 °F 31 °F 30.30 in West 1.1 mph 2 mph 99% 0.00 in 0 W/m2
03:24 31.4 °F 31.1 °F 30.30 in WNW 0.7 mph 2 mph 99% 0.00 in 0 W/m2
03:29 31.4 °F 31.1 °F 30.30 in WNW 0.3 mph 1 mph 99% 0.00 in 0 W/m2
03:34 31.5 °F 31.2 °F 30.30 in WNW 1.2 mph 2 mph 99% 0.00 in 0 W/m2
03:39 31.4 °F 31.1 °F 30.30 in West 0.4 mph 2 mph 99% 0.00 in 0 W/m2
03:44 31.4 °F 31.1 °F 30.30 in West 1.7 mph 1.6 mph 99% 0.00 in 0 W/m2
03:49 31.3 °F 31 °F 30.30 in West 2.1 mph 2 mph 99% 0.00 in 0 W/m2
03:54 31.3 °F 31 °F 30.30 in WNW 2.2 mph 2 mph 99% 0.00 in 0 W/m2
03:59 31.4 °F 31.1 °F 30.30 in WNW 2 mph 2 mph 99% 0.00 in 0 W/m2
04:04 31.5 °F 31.2 °F 30.30 in WNW 2.1 mph 2 mph 99% 0.00 in 0 W/m2
04:09 31.5 °F 31.2 °F 30.30 in NW 1.5 mph 2 mph 99% 0.00 in 0 W/m2
04:14 31.5 °F 31.2 °F 30.30 in NW 0.2 mph 2 mph 99% 0.00 in 0 W/m2
04:19 31.5 °F 31.2 °F 30.30 in Calm     99% 0.00 in 0 W/m2
04:24 31.5 °F 31.2 °F 30.30 in Calm     99% 0.00 in 0 W/m2
04:29 31.5 °F 31.2 °F 30.30 in North 0.2 mph 0.2 mph 99% 0.00 in 0 W/m2
04:34 31.6 °F 31.4 °F 30.30 in North 1 mph 1.6 mph 99% 0.00 in 0 W/m2
04:39 31.6 °F 31.4 °F 30.30 in NNW 1.6 mph 2 mph 99% 0.00 in 0 W/m2
04:44 31.6 °F 31.4 °F 30.30 in WNW 1.6 mph 2 mph 99% 0.00 in 0 W/m2
04:49 31.6 °F 31.4 °F 30.30 in NW 1.4 mph 2 mph 99% 0.00 in 0 W/m2
04:54 31.6 °F 31.4 °F 30.30 in NW 1.8 mph 2 mph 99% 0.00 in 0 W/m2
04:59 31.8 °F 31.6 °F 30.30 in NW 1.3 mph 2 mph 99% 0.00 in 0 W/m2
05:04 31.8 °F 31.6 °F 30.30 in NNW 0.5 mph 2 mph 99% 0.00 in 0 W/m2
05:09 31.8 °F 31.6 °F 30.30 in NNW 1.5 mph 1 mph 99% 0.00 in 0 W/m2
05:14 31.8 °F 31.6 °F 30.30 in NW 0.9 mph 2 mph 99% 0.00 in 0 W/m2
05:19 31.8 °F 31.6 °F 30.30 in WNW 1.3 mph 2 mph 99% 0.00 in 0 W/m2
05:24 31.8 °F 31.6 °F 30.30 in NW 1.1 mph 2 mph 99% 0.00 in 0 W/m2
05:29 31.8 °F 31.6 °F 30.30 in WNW 0.2 mph 2 mph 99% 0.00 in 0 W/m2
05:34 31.8 °F 31.6 °F 30.30 in WNW 1.1 mph 1 mph 99% 0.00 in 0 W/m2
05:39 31.8 °F 31.6 °F 30.30 in NW 0.7 mph 1 mph 99% 0.00 in 0 W/m2
05:44 31.8 °F 31.6 °F 30.30 in NNW 1.2 mph 1 mph 99% 0.00 in 0 W/m2
05:49 31.8 °F 31.6 °F 30.30 in NNW 1.9 mph 2 mph 99% 0.00 in 0 W/m2
05:54 31.8 °F 31.6 °F 30.30 in NNW 1.1 mph 2 mph 99% 0.00 in 0 W/m2
05:59 31.8 °F 31.6 °F 30.30 in NW 1.7 mph 1.8 mph 99% 0.00 in 0 W/m2
06:04 31.9 °F 31.7 °F 30.30 in NW 1.2 mph 2 mph 99% 0.00 in 0 W/m2
06:09 31.9 °F 31.7 °F 30.30 in NNW 1.3 mph 2 mph 99% 0.00 in 0 W/m2
06:14 32 °F 31.8 °F 30.30 in NW 2.2 mph 2 mph 99% 0.00 in 0 W/m2
06:19 32 °F 31.8 °F 30.31 in WNW 1.8 mph 2 mph 99% 0.00 in 0 W/m2
06:24 32 °F 31.8 °F 30.31 in WNW 2.1 mph 2 mph 99% 0.00 in 0 W/m2
06:29 32 °F 31.8 °F 30.31 in NW 0.2 mph 2 mph 99% 0.00 in 0 W/m2
06:34 32 °F 31.8 °F 30.31 in Calm     99% 0.00 in 0 W/m2
06:39 32.2 °F 31.9 °F 30.31 in Calm     99% 0.00 in 1 W/m2
06:44 32.2 °F 31.9 °F 30.31 in NW 0.9 mph 1.1 mph 99% 0.00 in 1 W/m2
06:49 32.2 °F 31.9 °F 30.31 in North 0.9 mph 2 mph 99% 0.00 in 2 W/m2
06:54 32.2 °F 31.9 °F 30.31 in NNW 1.2 mph 1 mph 99% 0.00 in 3 W/m2
06:59 32.3 °F 32 °F 30.31 in WNW 0.8 mph 1 mph 99% 0.00 in 4 W/m2
07:04 32.4 °F 32.1 °F 30.31 in WNW 0.9 mph 1 mph 99% 0.00 in 7 W/m2
07:09 32.4 °F 32.1 °F 30.31 in WNW 0.6 mph 1 mph 99% 0.00 in 9 W/m2
07:14 32.4 °F 32.1 °F 30.31 in West 1.8 mph 1.3 mph 99% 0.00 in 11 W/m2
07:19 32.4 °F 32.1 °F 30.32 in WNW 2.1 mph 2 mph 99% 0.00 in 12 W/m2
07:24 32.4 °F 32.1 °F 30.32 in WNW 2 mph 2 mph 99% 0.00 in 13 W/m2
07:29 32.4 °F 32.1 °F 30.32 in WNW 2.3 mph 2 mph 99% 0.00 in 15 W/m2
07:34 32.5 °F 32.3 °F 30.32 in WNW 2.2 mph 2 mph 99% 0.00 in 18 W/m2
07:39 32.5 °F 32.3 °F 30.32 in WNW 2.5 mph 2 mph 99% 0.00 in 20 W/m2
07:44 32.6 °F 32.4 °F 30.31 in WNW 2.5 mph 3 mph 99% 0.00 in 24 W/m2
07:49 32.8 °F 32.6 °F 30.32 in NW 2.3 mph 2 mph 99% 0.00 in 25 W/m2
07:54 32.9 °F 32.7 °F 30.32 in WNW 2.2 mph 2 mph 99% 0.00 in 27 W/m2
07:59 33.1 °F 32.8 °F 30.32 in WNW 2.2 mph 2 mph 99% 0.00 in 31 W/m2
08:04 33.1 °F 32.8 °F 30.32 in West 2.2 mph 2 mph 99% 0.00 in 31 W/m2
08:09 33.3 °F 33 °F 30.32 in WNW 1.9 mph 2 mph 99% 0.00 in 34 W/m2
08:14 33.3 °F 33 °F 30.31 in WNW 1.9 mph 2 mph 99% 0.00 in 38 W/m2
08:19 33.4 °F 33.2 °F 30.31 in WNW 2.6 mph 2 mph 99% 0.00 in 43 W/m2
08:24 33.4 °F 33.2 °F 30.31 in WNW 2.5 mph 3 mph 99% 0.00 in 45 W/m2
08:29 33.6 °F 33.4 °F 30.31 in West 2.5 mph 3 mph 99% 0.00 in 45 W/m2
08:34 33.6 °F 33.4 °F 30.31 in WNW 1.3 mph 3 mph 99% 0.00 in 48 W/m2
08:39 33.8 °F 33.5 °F 30.31 in WNW 2.3 mph 2.5 mph 99% 0.00 in 49 W/m2
08:44 34 °F 33.7 °F 30.31 in WNW 3.3 mph 3 mph 99% 0.00 in 49 W/m2
08:49 34 °F 33.7 °F 30.31 in West 2.5 mph 3 mph 99% 0.00 in 48 W/m2
08:54 34.2 °F 33.9 °F 30.32 in West 2.6 mph 4 mph 99% 0.00 in 51 W/m2
08:59 34.2 °F 33.9 °F 30.32 in West 3 mph 3 mph 99% 0.00 in 53 W/m2
09:04 34.3 °F 34.1 °F 30.32 in West 3.2 mph 3 mph 99% 0.00 in 59 W/m2
09:09 34.3 °F 34.1 °F 30.32 in West 2.5 mph 3 mph 99% 0.00 in 62 W/m2
09:14 34.5 °F 34.3 °F 30.31 in WNW 2.3 mph 3 mph 99% 0.00 in 67 W/m2
09:19 34.7 °F 34.4 °F 30.31 in West 2.9 mph 2.7 mph 99% 0.00 in 76 W/m2
09:24 34.9 °F 34.6 °F 30.31 in West 3.5 mph 3.1 mph 99% 0.00 in 83 W/m2
09:29 35.1 °F 34.8 °F 30.31 in West 3.5 mph 5 mph 99% 0.00 in 86 W/m2
09:34 35.2 °F 34.9 °F 30.31 in West 2.7 mph 3 mph 99% 0.00 in 92 W/m2
09:39 35.3 °F 35.1 °F 30.31 in WNW 1.4 mph 3 mph 99% 0.00 in 96 W/m2
09:44 35.5 °F 35.2 °F 30.31 in NW 0.2 mph 2 mph 99% 0.00 in 99 W/m2
09:49 35.7 °F 35.4 °F 30.31 in North 0.5 mph 0.9 mph 99% 0.00 in 101 W/m2
09:54 35.9 °F 35.6 °F 30.31 in NNW 1.3 mph 1 mph 99% 0.00 in 101 W/m2
09:59 36 °F 35.7 °F 30.31 in NW 1 mph 2 mph 99% 0.00 in 109 W/m2
10:04 36.1 °F 35.9 °F 30.31 in NW 0.3 mph 1 mph 99% 0.00 in 114 W/m2
10:09 36.2 °F 36 °F 30.31 in NNW 1.1 mph 1 mph 99% 0.00 in 123 W/m2
10:14 36.4 °F 36.2 °F 30.31 in NW 0.6 mph 1 mph 99% 0.00 in 129 W/m2
10:19 36.7 °F 36.4 °F 30.30 in WNW 0.9 mph 1 mph 99% 0.00 in 134 W/m2
10:24 36.9 °F 36.7 °F 30.30 in West 1 mph 1 mph 99% 0.00 in 139 W/m2
10:29 37 °F 36.8 °F 30.30 in NW 0.8 mph 2 mph 99% 0.00 in 147 W/m2
10:34 37.2 °F 37 °F 30.30 in North 0.7 mph 2 mph 99% 0.00 in 151 W/m2
10:39 37.4 °F 37.1 °F 30.30 in West 1.2 mph 1 mph 99% 0.00 in 160 W/m2
10:44 37.6 °F 37.2 °F 30.30 in SSW 1.4 mph 2 mph 98.5% 0.00 in 169 W/m2
10:49 37.8 °F 37.2 °F 30.30 in NE 1.1 mph 2 mph 98% 0.00 in 170 W/m2
10:54 37.9 °F 37.3 °F 30.30 in North 1.5 mph 2 mph 98% 0.00 in 172 W/m2
10:59 38 °F 37.5 °F 30.29 in NNW 1.2 mph 2 mph 98% 0.00 in 176 W/m2
11:04 38.3 °F 37.8 °F 30.29 in North 2.6 mph 2 mph 98% 0.00 in 175 W/m2
11:09 38.6 °F 37.7 °F 30.29 in WNW 2.7 mph 3 mph 96.7% 0.00 in 171 W/m2
11:14 38.8 °F 37.8 °F 30.29 in WNW 1.8 mph 3 mph 96% 0.00 in 172 W/m2
11:19 38.9 °F 37.9 °F 30.29 in NW 2.5 mph 3 mph 96% 0.00 in 176 W/m2
11:24 39 °F 38 °F 30.29 in NW 1.4 mph 3 mph 96% 0.00 in 186 W/m2
11:29 39.1 °F 38 °F 30.28 in North 1.5 mph 2 mph 95.6% 0.00 in 189 W/m2
11:34 39.2 °F 37.9 °F 30.28 in NE 1.9 mph 3 mph 95% 0.00 in 186 W/m2
11:39 39.2 °F 37.9 °F 30.28 in NNW 0.1 mph 2 mph 95% 0.00 in 185 W/m2
11:44 39.2 °F 37.8 °F 30.28 in West 0.5 mph   94.7% 0.00 in 178 W/m2
11:49 39.3 °F 37.9 °F 30.28 in West 1.1 mph 1 mph 94.8% 0.00 in 168 W/m2
11:54 39.4 °F 37.9 °F 30.28 in WNW 2.2 mph 2.2 mph 94.3% 0.00 in 161 W/m2
11:59 39.6 °F 38 °F 30.28 in WNW 2.5 mph 3 mph 94.1% 0.00 in 160 W/m2
12:04 39.7 °F 38.1 °F 30.28 in West 2.7 mph 2 mph 93.6% 0.00 in 156 W/m2
12:09 39.6 °F 37.7 °F 30.28 in WSW 2.1 mph 3 mph 93% 0.00 in 144 W/m2
12:14 39.6 °F 37.7 °F 30.27 in SW 0.9 mph 2 mph 93% 0.00 in 148 W/m2
12:19 39.7 °F 37.9 °F 30.27 in East 1.8 mph 1.6 mph 93% 0.00 in 148 W/m2
12:24 39.9 °F 38.1 °F 30.27 in NNE 0.6 mph 2 mph 93% 0.00 in 138 W/m2
12:29 40.1 °F 38.2 °F 30.27 in NW 1.8 mph 1.3 mph 93% 0.00 in 129 W/m2
12:34 40.2 °F 38.3 °F 30.27 in NW 2.3 mph 2 mph 93% 0.00 in 134 W/m2
12:39 40.3 °F 38.4 °F 30.27 in NNW 2 mph 3 mph 93% 0.00 in 133 W/m2
12:44 40.3 °F 38.4 °F 30.27 in North 1.5 mph 2 mph 93% 0.00 in 129 W/m2
12:49 40.3 °F 38.2 °F 30.27 in NNW 1.4 mph 2 mph 92.3% 0.00 in 127 W/m2
12:54 40.4 °F 38.2 °F 30.27 in NNW 2.1 mph 2 mph 91.7% 0.00 in 126 W/m2
12:59 40.5 °F 38 °F 30.27 in NNW 1.9 mph 2 mph 91% 0.00 in 119 W/m2
13:04 40.5 °F 38 °F 30.27 in NW 1.4 mph 2 mph 91% 0.00 in 114 W/m2
13:09 40.5 °F 38 °F 30.27 in North 0.8 mph 2 mph 91% 0.00 in 108 W/m2
13:14 40.6 °F 38.2 °F 30.27 in Calm   1 mph 91% 0.00 in 109 W/m2
13:19 40.6 °F 38.1 °F 30.26 in NE 2 mph 1.6 mph 91% 0.00 in 108 W/m2
13:24 40.6 °F 38.1 °F 30.26 in NE 2.2 mph 3 mph 90.6% 0.00 in 105 W/m2
13:29 40.6 °F 38.1 °F 30.26 in NNE 2.7 mph 3 mph 90.5% 0.00 in 102 W/m2
13:34 40.6 °F 37.9 °F 30.26 in NNE 3.1 mph 3 mph 90% 0.00 in 96 W/m2
13:39 40.8 °F 38.2 °F 30.26 in NNE 2.6 mph 4 mph 90.3% 0.00 in 90 W/m2
13:44 40.9 °F 38.3 °F 30.26 in NNE 2.8 mph 3 mph 90.5% 0.00 in 90 W/m2
13:49 41 °F 38.3 °F 30.26 in NNE 3.4 mph 3.4 mph 89.9% 0.00 in 86 W/m2
13:54 41 °F 38.2 °F 30.25 in NNE 3.5 mph 5 mph 89.6% 0.00 in 86 W/m2
13:59 41 °F 38.2 °F 30.25 in NNE 2.9 mph 4 mph 89.5% 0.00 in 84 W/m2
14:04 41.1 °F 38.1 °F 30.26 in North 3.2 mph 4 mph 89.1% 0.00 in 78 W/m2
14:09 41.1 °F 38.1 °F 30.25 in North 1.3 mph 4 mph 89% 0.00 in 70 W/m2
14:14 41 °F 38 °F 30.26 in NNE 2.7 mph 2 mph 89% 0.00 in 66 W/m2
14:19 40.8 °F 37.8 °F 30.25 in NE 2.5 mph 3 mph 89% 0.00 in 61 W/m2
14:24 40.8 °F 37.8 °F 30.25 in NE 2.4 mph 3 mph 89% 0.00 in 49 W/m2
14:29 40.8 °F 37.8 °F 30.25 in NE 2.5 mph 3.4 mph 89% 0.00 in 48 W/m2
14:34 40.8 °F 37.8 °F 30.25 in NE 3 mph 4 mph 89% 0.00 in 48 W/m2
14:39 40.7 °F 37.8 °F 30.25 in NE 1.9 mph 4 mph 89% 0.00 in 48 W/m2
14:44 40.6 °F 37.7 °F 30.25 in NE 2 mph 2 mph 89% 0.00 in 42 W/m2
14:49 40.6 °F 37.9 °F 30.25 in NE 2.2 mph 2 mph 89.9% 0.00 in 36 W/m2
14:54 40.7 °F 38 °F 30.25 in NNE 2.5 mph 3 mph 90% 0.00 in 32 W/m2
14:59 40.7 °F 38 °F 30.25 in NNE 2.2 mph 3 mph 90% 0.00 in 30 W/m2
15:04 40.7 °F 37.9 °F 30.25 in North 2.5 mph 3 mph 90% 0.00 in 28 W/m2
15:09 40.6 °F 37.9 °F 30.25 in North 2.6 mph 3 mph 90% 0.00 in 23 W/m2
15:14 40.6 °F 37.9 °F 30.25 in NNE 2.7 mph 3 mph 90% 0.00 in 20 W/m2
15:19 40.6 °F 37.9 °F 30.25 in NNE 2.6 mph 3 mph 90% 0.00 in 17 W/m2
15:24 40.6 °F 37.8 °F 30.25 in North 2 mph 3 mph 90% 0.00 in 14 W/m2
15:29 40.5 °F 37.8 °F 30.25 in North 1.9 mph 2 mph 90% 0.00 in 12 W/m2
15:34 40.5 °F 37.9 °F 30.25 in North 2.2 mph 2 mph 90.5% 0.00 in 9 W/m2
15:39 40.4 °F 38 °F 30.25 in North 2.2 mph 2 mph 91% 0.00 in 7 W/m2
15:44 40.3 °F 37.9 °F 30.25 in North 2 mph 2 mph 91% 0.00 in 4 W/m2
15:49 40.3 °F 37.9 °F 30.25 in North 1.6 mph 2 mph 91% 0.00 in 3 W/m2
15:54 40.2 °F 37.8 °F 30.25 in North 2.4 mph 2 mph 91% 0.00 in 2 W/m2
15:59 40.1 °F 37.7 °F 30.25 in North 2.4 mph 3 mph 91% 0.00 in 1 W/m2
16:04 40.1 °F 37.7 °F 30.25 in North 2.1 mph 3 mph 91% 0.00 in 0 W/m2
16:09 40.1 °F 37.7 °F 30.25 in North 1.7 mph 2 mph 91% 0.00 in 0 W/m2
16:14 40.1 °F 37.7 °F 30.25 in North 1.9 mph 2 mph 91% 0.00 in 0 W/m2
16:19 40.1 °F 37.7 °F 30.25 in North 0.9 mph 2 mph 91% 0.00 in 0 W/m2
16:24 40 °F 37.6 °F 30.25 in North 0.9 mph 2 mph 91% 0.00 in 0 W/m2
16:29 39.9 °F 38.1 °F 30.25 in NNE 0.2 mph 1 mph 92.9% 0.00 in 0 W/m2
16:34 39.9 °F 38.1 °F 30.25 in Calm     93% 0.00 in 0 W/m2
16:39 39.9 °F 38.2 °F 30.25 in Calm     93.7% 0.00 in 0 W/m2
16:44 39.8 °F 38.3 °F 30.25 in Calm     94% 0.00 in 0 W/m2
16:49 39.7 °F 38.3 °F 30.25 in Calm     94.5% 0.00 in 0 W/m2
16:54 39.7 °F 38.4 °F 30.25 in North 0.3 mph   95.1% 0.00 in 0 W/m2
16:59 39.7 °F 38.6 °F 30.25 in North 0.4 mph 1 mph 95.9% 0.00 in 0 W/m2
17:04 39.6 °F 38.6 °F 30.25 in NW 1 mph 1 mph 96.2% 0.01 in 0 W/m2
17:09 39.6 °F 38.9 °F 30.25 in NNW 0.6 mph 2 mph 97.5% 0.01 in 0 W/m2
17:14 39.6 °F 39 °F 30.25 in NNW 0.4 mph 1 mph 98% 0.01 in 0 W/m2
17:19 39.4 °F 39.1 °F 30.25 in Calm   1 mph 98.8% 0.01 in 0 W/m2
17:24 39.4 °F 39.1 °F 30.25 in WSW 0.7 mph 1.1 mph 99% 0.01 in 0 W/m2
17:29 39.2 °F 38.9 °F 30.25 in WSW 2 mph 2 mph 99% 0.01 in 0 W/m2
17:34 39.1 °F 38.8 °F 30.25 in WSW 1 mph 2 mph 99% 0.01 in 0 W/m2
17:39 39 °F 38.8 °F 30.25 in West 1.9 mph 2 mph 99% 0.01 in 0 W/m2
17:44 39 °F 38.8 °F 30.25 in West 2 mph 2 mph 99% 0.01 in 0 W/m2
17:49 38.9 °F 38.7 °F 30.25 in West 1.9 mph 2 mph 99% 0.01 in 0 W/m2
17:54 38.8 °F 38.6 °F 30.25 in West 1.9 mph 2 mph 99% 0.01 in 0 W/m2
17:59 38.7 °F 38.5 °F 30.25 in WNW 2 mph 2 mph 99% 0.01 in 0 W/m2
18:04 38.7 °F 38.4 °F 30.25 in NW 0.7 mph 2 mph 99% 0.01 in 0 W/m2
18:09 38.7 °F 38.4 °F 30.25 in NNW 1.6 mph 2 mph 99% 0.01 in 0 W/m2
18:14 38.7 °F 38.4 °F 30.25 in NW 2.2 mph 2 mph 99% 0.01 in 0 W/m2
18:19 38.6 °F 38.3 °F 30.25 in WNW 1.9 mph 2 mph 99% 0.01 in 0 W/m2
18:24 38.5 °F 38.2 °F 30.25 in West 2.1 mph 2 mph 99% 0.01 in 0 W/m2
18:29 38.5 °F 38.2 °F 30.25 in West 2.1 mph 2 mph 99% 0.01 in 0 W/m2
18:34 38.5 °F 38.2 °F 30.25 in WNW 1.8 mph 2 mph 99% 0.01 in 0 W/m2
18:39 38.5 °F 38.2 °F 30.25 in West 2.2 mph 2 mph 99% 0.01 in 0 W/m2
18:44 38.4 °F 38.1 °F 30.24 in West 2 mph 2 mph 99% 0.01 in 0 W/m2
18:49 38.3 °F 38.1 °F 30.24 in WNW 2.3 mph 2 mph 99% 0.01 in 0 W/m2
18:54 38.4 °F 38.1 °F 30.24 in WNW 2.5 mph 3 mph 99% 0.01 in 0 W/m2
18:59 38.3 °F 38 °F 30.24 in West 3.1 mph 3 mph 99% 0.01 in 0 W/m2
19:04 38.3 °F 38 °F 30.24 in West 3.3 mph 4 mph 99% 0.01 in 0 W/m2
19:09 38.3 °F 38 °F 30.24 in West 3.6 mph 4 mph 99% 0.01 in 0 W/m2
19:14 38.2 °F 37.9 °F 30.24 in West 4.4 mph 5 mph 99% 0.01 in 0 W/m2
19:19 38.1 °F 37.9 °F 30.24 in West 4.2 mph 6 mph 99% 0.01 in 0 W/m2
19:24 38.1 °F 37.9 °F 30.24 in West 3 mph 5 mph 99% 0.01 in 0 W/m2
19:29 38 °F 37.8 °F 30.24 in West 3.4 mph 3 mph 99% 0.01 in 0 W/m2
19:34 37.9 °F 37.7 °F 30.24 in WNW 3 mph 4 mph 99% 0.01 in 0 W/m2
19:39 37.9 °F 37.7 °F 30.24 in WNW 2.9 mph 3 mph 99% 0.01 in 0 W/m2
19:44 37.9 °F 37.7 °F 30.24 in NW 3.7 mph 6 mph 99% 0.01 in 0 W/m2
19:49 37.9 °F 37.7 °F 30.24 in NW 3 mph 6 mph 99% 0.01 in 0 W/m2
19:54 37.9 °F 37.7 °F 30.24 in NW 3.1 mph 3 mph 99% 0.01 in 0 W/m2
19:59 37.8 °F 37.6 °F 30.24 in NW 3.3 mph 3 mph 99% 0.01 in 0 W/m2
20:04 37.8 °F 37.5 °F 30.24 in NW 2.2 mph 4 mph 99% 0.01 in 0 W/m2
20:09 37.8 °F 37.5 °F 30.24 in NW 2 mph 2 mph 99% 0.01 in 0 W/m2
20:14 37.8 °F 37.5 °F 30.24 in WNW 2.5 mph 3 mph 99% 0.01 in 0 W/m2
20:19 37.8 °F 37.5 °F 30.24 in West 3.2 mph 3 mph 99% 0.01 in 0 W/m2
20:24 37.8 °F 37.5 °F 30.24 in West 3.2 mph 3 mph 99% 0.01 in 0 W/m2
20:29 37.6 °F 37.3 °F 30.24 in West 3.4 mph 5 mph 99% 0.01 in 0 W/m2
20:34 37.6 °F 37.3 °F 30.24 in West 2.9 mph 4 mph 99% 0.01 in 0 W/m2
20:39 37.4 °F 37.1 °F 30.24 in West 3.3 mph 3 mph 99% 0.01 in 0 W/m2
20:44 37.4 °F 37.1 °F 30.24 in West 3.8 mph 4 mph 99% 0.01 in 0 W/m2
20:49 37.4 °F 37.1 °F 30.24 in West 3.6 mph 6 mph 99% 0.01 in 0 W/m2
20:54 37.4 °F 37.1 °F 30.24 in West 2.9 mph 6 mph 99% 0.01 in 0 W/m2
20:59 37.4 °F 37.1 °F 30.24 in West 2.2 mph 3 mph 99% 0.01 in 0 W/m2
21:04 37.2 °F 37 °F 30.24 in West 1.8 mph 2 mph 99% 0.01 in 0 W/m2
21:09 37.2 °F 37 °F 30.24 in WSW 2.5 mph 2 mph 99% 0.01 in 0 W/m2
21:14 37.2 °F 37 °F 30.24 in WSW 2.2 mph 3 mph 99% 0.01 in 0 W/m2
21:19 37.2 °F 37 °F 30.23 in WSW 2.2 mph 2 mph 99% 0.01 in 0 W/m2
21:24 37.1 °F 36.9 °F 30.23 in West 2.4 mph 2 mph 99% 0.01 in 0 W/m2
21:29 37.1 °F 36.9 °F 30.23 in West 2.5 mph 3 mph 99% 0.02 in 0 W/m2
21:34 37.2 °F 37 °F 30.23 in West 2.3 mph 3 mph 99% 0.02 in 0 W/m2
21:39 37.1 °F 36.9 °F 30.23 in WSW 2.6 mph 3 mph 99% 0.02 in 0 W/m2
21:44 37 °F 36.8 °F 30.23 in WSW 3 mph 3 mph 99% 0.02 in 0 W/m2
21:49 37.1 °F 36.9 °F 30.23 in West 2.5 mph 4 mph 99% 0.02 in 0 W/m2
21:54 37 °F 36.8 °F 30.23 in West 2 mph 2 mph 99% 0.02 in 0 W/m2
21:59 37 °F 36.8 °F 30.23 in West 2.2 mph 2 mph 99% 0.01 in 0 W/m2
22:04 37 °F 36.8 °F 30.23 in WSW 2.1 mph 2 mph 99% 0.01 in 0 W/m2
22:09 37 °F 36.8 °F 30.23 in West 1.7 mph 2 mph 99% 0.01 in 0 W/m2
22:14 37 °F 36.8 °F 30.23 in West 2.1 mph 2 mph 99% 0.01 in 0 W/m2
22:19 37 °F 36.8 °F 30.23 in West 2.2 mph 2 mph 99% 0.06 in 0 W/m2
22:24 37 °F 36.8 °F 30.23 in West 2.2 mph 2 mph 99% 0.06 in 0 W/m2
22:29 37 °F 36.8 °F 30.23 in West 2.1 mph 2 mph 99% 0.06 in 0 W/m2
22:34 37 °F 36.8 °F 30.23 in West 2.1 mph 2 mph 99% 0.06 in 0 W/m2
22:39 37 °F 36.8 °F 30.22 in West 1.8 mph 2 mph 99% 0.06 in 0 W/m2
22:44 37 °F 36.8 °F 30.22 in WNW 1.3 mph 2 mph 99% 0.06 in 0 W/m2
22:49 37 °F 36.8 °F 30.22 in NW 1.8 mph 2 mph 99% 0.05 in 0 W/m2
22:54 37 °F 36.8 °F 30.22 in NW 1.1 mph 2 mph 99% 0.05 in 0 W/m2
22:59 37 °F 36.8 °F 30.22 in WNW 1.2 mph 2 mph 99% 0.05 in 0 W/m2
23:04 37 °F 36.8 °F 30.22 in NW 1.8 mph 2 mph 99% 0.05 in 0 W/m2
23:09 37 °F 36.7 °F 30.22 in WNW 1.3 mph 2 mph 99% 0.05 in 0 W/m2
23:14 36.9 °F 36.6 °F 30.22 in West 1.1 mph 2 mph 99% 0.05 in 0 W/m2
23:19 36.9 °F 36.6 °F 30.22 in West 1.4 mph 1.1 mph 99% 0.05 in 0 W/m2
23:24 36.9 °F 36.6 °F 30.22 in WSW 1.7 mph 2 mph 99% 0.00 in 0 W/m2
23:29 36.9 °F 36.6 °F 30.22 in SW 1.4 mph 2 mph 99% 0.00 in 0 W/m2
23:34 36.9 °F 36.6 °F 30.22 in SW 2.1 mph 2 mph 99% 0.00 in 0 W/m2
23:39 36.9 °F 36.6 °F 30.22 in WSW 1.7 mph 2 mph 99% 0.00 in 0 W/m2
23:44 36.9 °F 36.6 °F 30.22 in WSW 1.4 mph 2 mph 99% 0.00 in 0 W/m2
23:49 36.7 °F 36.4 °F 30.21 in SW 2.2 mph 2 mph 99% 0.00 in 0 W/m2
23:54 36.5 °F 36.2 °F 30.21 in SSW 2.4 mph 2 mph 99% 0.00 in 0 W/m2
23:59 36.5 °F 36.2 °F 30.21 in South 2.3 mph 3 mph 99% 0.00 in 0 W/m2
Knjazevac, Serbia
Compliments of Weather Underground - 4 mb